メインページ
METAR-TAF:

METAR-TAF

空港 :

高松空港

高松, 日本

緯度: 34-13N, 経度: 134-01E, 海抜: 185m

現時点の気象観測

当レポートは23分前の07:00(UTC)に作成
の風 8kt、北東から東/南東の間で変化する
気温 30°C
湿度 66%
気圧 1008 hPa
視程10km以上
高度3000ftの雲はほとんどない
高度4000ftの雲は散在している
千切れ雲あり

METAR: RJOT 200700Z 08008KT 050V120 9999 FEW030 SCT040 BKN/// 30/23 Q1008

時間: 16:23 (07:23 UTC)

予報

当レポートは2時間15分前の05:08(UTC)に作成
予報は20日の 06時(UTC)から 21日の 12時(UTC)まで有効
東/北東の風 10kt
視程10km以上
高度3000ftの雲はほとんどない

TAF: RJOT 200508Z 2006/2112 06010KT 9999 FEW030

4,000以上の空港の気象観測と天気予報(METAR報とTAF報)

利用可能な観測所は地図上に黄色い丸と赤い丸で示す。

丸の上にカーソルを重ねると観測所名を参照できる。

次にクリックすると気象観測と天気予報を参照できる。

マップの切り替え:黒色「×」印の緑ボタンをクリックして拡大、「-」印の緑ボタンをクリックして縮小、緑色の三角印をクリックして隣りの地図に切り替え


METAR-TAF: